sensor_id;sensor_type;location;lat;lon;timestamp;P1;durP1;ratioP1;P2;durP2;ratioP2
69985;SDS011;57328;52.054;5.294;2022-09-09T00:00:24;2.80;;;1.02;;
69985;SDS011;57328;52.054;5.294;2022-09-09T00:03:00;2.78;;;1.13;;
69985;SDS011;57328;52.054;5.294;2022-09-09T00:05:31;1.27;;;0.70;;
69985;SDS011;57328;52.054;5.294;2022-09-09T00:07:59;2.47;;;1.25;;
69985;SDS011;57328;52.054;5.294;2022-09-09T00:18:17;6.13;;;1.40;;
69985;SDS011;57328;52.054;5.294;2022-09-09T00:20:49;2.13;;;1.00;;
69985;SDS011;57328;52.054;5.294;2022-09-09T00:23:33;2.50;;;1.08;;
69985;SDS011;57328;52.054;5.294;2022-09-09T00:26:05;3.83;;;1.20;;
69985;SDS011;57328;52.054;5.294;2022-09-09T00:31:11;1.67;;;0.70;;
69985;SDS011;57328;52.054;5.294;2022-09-09T00:33:38;2.70;;;1.17;;
69985;SDS011;57328;52.054;5.294;2022-09-09T00:36:09;1.92;;;1.45;;
69985;SDS011;57328;52.054;5.294;2022-09-09T00:38:40;2.38;;;1.13;;
69985;SDS011;57328;52.054;5.294;2022-09-09T00:41:14;1.83;;;1.10;;
69985;SDS011;57328;52.054;5.294;2022-09-09T00:43:44;2.20;;;0.98;;
69985;SDS011;57328;52.054;5.294;2022-09-09T00:57:06;3.47;;;1.23;;
69985;SDS011;57328;52.054;5.294;2022-09-09T01:05:19;4.85;;;1.40;;
69985;SDS011;57328;52.054;5.294;2022-09-09T01:07:47;5.28;;;1.95;;
69985;SDS011;57328;52.054;5.294;2022-09-09T01:10:36;2.25;;;1.27;;
69985;SDS011;57328;52.054;5.294;2022-09-09T01:13:12;2.90;;;1.30;;
69985;SDS011;57328;52.054;5.294;2022-09-09T01:15:41;2.95;;;1.60;;
69985;SDS011;57328;52.054;5.294;2022-09-09T01:18:10;2.47;;;0.93;;
69985;SDS011;57328;52.054;5.294;2022-09-09T01:31:07;1.92;;;1.10;;
69985;SDS011;57328;52.054;5.294;2022-09-09T01:33:36;5.35;;;1.75;;
69985;SDS011;57328;52.054;5.294;2022-09-09T01:45:08;2.47;;;1.38;;
69985;SDS011;57328;52.054;5.294;2022-09-09T01:47:36;3.95;;;1.40;;
69985;SDS011;57328;52.054;5.294;2022-09-09T01:50:03;6.63;;;2.00;;
69985;SDS011;57328;52.054;5.294;2022-09-09T01:52:31;2.75;;;1.30;;
69985;SDS011;57328;52.054;5.294;2022-09-09T01:55:00;2.65;;;1.35;;
69985;SDS011;57328;52.054;5.294;2022-09-09T01:57:29;2.65;;;1.15;;
69985;SDS011;57328;52.054;5.294;2022-09-09T02:07:56;1.40;;;0.80;;
69985;SDS011;57328;52.054;5.294;2022-09-09T02:10:32;3.58;;;1.17;;
69985;SDS011;57328;52.054;5.294;2022-09-09T02:13:15;4.53;;;1.70;;
69985;SDS011;57328;52.054;5.294;2022-09-09T02:15:50;1.52;;;0.85;;
69985;SDS011;57328;52.054;5.294;2022-09-09T02:20:53;2.53;;;0.93;;
69985;SDS011;57328;52.054;5.294;2022-09-09T02:23:20;3.75;;;1.70;;
69985;SDS011;57328;52.054;5.294;2022-09-09T02:25:48;5.18;;;1.88;;
69985;SDS011;57328;52.054;5.294;2022-09-09T02:28:17;2.47;;;1.00;;
69985;SDS011;57328;52.054;5.294;2022-09-09T02:33:13;2.85;;;1.20;;
69985;SDS011;57328;52.054;5.294;2022-09-09T02:35:41;3.20;;;1.40;;
69985;SDS011;57328;52.054;5.294;2022-09-09T02:38:11;1.95;;;1.00;;
69985;SDS011;57328;52.054;5.294;2022-09-09T02:40:39;4.65;;;2.17;;
69985;SDS011;57328;52.054;5.294;2022-09-09T02:43:06;3.35;;;1.48;;
69985;SDS011;57328;52.054;5.294;2022-09-09T02:45:51;3.83;;;1.73;;
69985;SDS011;57328;52.054;5.294;2022-09-09T02:48:32;6.30;;;1.98;;
69985;SDS011;57328;52.054;5.294;2022-09-09T02:51:10;3.30;;;1.30;;
69985;SDS011;57328;52.054;5.294;2022-09-09T02:53:43;4.43;;;2.05;;
69985;SDS011;57328;52.054;5.294;2022-09-09T02:56:15;4.05;;;2.25;;
69985;SDS011;57328;52.054;5.294;2022-09-09T02:58:43;3.80;;;1.60;;
69985;SDS011;57328;52.054;5.294;2022-09-09T03:01:10;6.50;;;2.10;;
69985;SDS011;57328;52.054;5.294;2022-09-09T03:03:37;10.40;;;2.67;;
69985;SDS011;57328;52.054;5.294;2022-09-09T03:06:05;3.85;;;1.85;;
69985;SDS011;57328;52.054;5.294;2022-09-09T03:08:32;4.95;;;2.05;;
69985;SDS011;57328;52.054;5.294;2022-09-09T03:13:53;4.05;;;1.85;;
69985;SDS011;57328;52.054;5.294;2022-09-09T03:16:22;3.72;;;1.95;;
69985;SDS011;57328;52.054;5.294;2022-09-09T03:18:50;4.43;;;1.77;;
69985;SDS011;57328;52.054;5.294;2022-09-09T03:21:17;4.70;;;2.20;;
69985;SDS011;57328;52.054;5.294;2022-09-09T03:23:44;7.75;;;2.78;;
69985;SDS011;57328;52.054;5.294;2022-09-09T03:26:12;4.82;;;2.33;;
69985;SDS011;57328;52.054;5.294;2022-09-09T03:28:41;7.05;;;1.98;;
69985;SDS011;57328;52.054;5.294;2022-09-09T03:34:09;7.20;;;2.92;;
69985;SDS011;57328;52.054;5.294;2022-09-09T03:36:36;2.88;;;1.33;;
69985;SDS011;57328;52.054;5.294;2022-09-09T03:39:04;5.50;;;2.05;;
69985;SDS011;57328;52.054;5.294;2022-09-09T03:41:31;4.43;;;2.45;;
69985;SDS011;57328;52.054;5.294;2022-09-09T03:43:58;2.92;;;1.80;;
69985;SDS011;57328;52.054;5.294;2022-09-09T03:46:25;6.22;;;3.03;;
69985;SDS011;57328;52.054;5.294;2022-09-09T03:48:53;3.05;;;1.60;;
69985;SDS011;57328;52.054;5.294;2022-09-09T03:51:20;4.78;;;2.70;;
69985;SDS011;57328;52.054;5.294;2022-09-09T03:53:48;7.60;;;2.72;;
69985;SDS011;57328;52.054;5.294;2022-09-09T03:56:15;2.67;;;1.42;;
69985;SDS011;57328;52.054;5.294;2022-09-09T03:58:42;4.07;;;2.22;;
69985;SDS011;57328;52.054;5.294;2022-09-09T04:01:10;5.35;;;2.40;;
69985;SDS011;57328;52.054;5.294;2022-09-09T04:03:40;4.35;;;1.98;;
69985;SDS011;57328;52.054;5.294;2022-09-09T04:06:09;7.72;;;3.28;;
69985;SDS011;57328;52.054;5.294;2022-09-09T04:08:37;3.92;;;2.38;;
69985;SDS011;57328;52.054;5.294;2022-09-09T04:11:05;5.20;;;2.70;;
69985;SDS011;57328;52.054;5.294;2022-09-09T04:13:36;6.43;;;2.20;;
69985;SDS011;57328;52.054;5.294;2022-09-09T04:16:05;5.07;;;2.25;;
69985;SDS011;57328;52.054;5.294;2022-09-09T04:18:32;4.90;;;2.72;;
69985;SDS011;57328;52.054;5.294;2022-09-09T04:21:01;3.03;;;1.73;;
69985;SDS011;57328;52.054;5.294;2022-09-09T04:23:29;4.65;;;2.28;;
69985;SDS011;57328;52.054;5.294;2022-09-09T04:25:59;5.22;;;2.33;;
69985;SDS011;57328;52.054;5.294;2022-09-09T04:28:27;4.03;;;1.75;;
69985;SDS011;57328;52.054;5.294;2022-09-09T04:30:55;6.95;;;2.70;;
69985;SDS011;57328;52.054;5.294;2022-09-09T04:33:23;6.63;;;2.88;;
69985;SDS011;57328;52.054;5.294;2022-09-09T04:35:52;9.13;;;2.95;;
69985;SDS011;57328;52.054;5.294;2022-09-09T04:38:20;5.45;;;1.60;;
69985;SDS011;57328;52.054;5.294;2022-09-09T04:40:49;6.03;;;2.70;;
69985;SDS011;57328;52.054;5.294;2022-09-09T04:43:17;7.13;;;3.38;;
69985;SDS011;57328;52.054;5.294;2022-09-09T04:45:46;7.10;;;3.30;;
69985;SDS011;57328;52.054;5.294;2022-09-09T04:48:14;5.18;;;3.00;;
69985;SDS011;57328;52.054;5.294;2022-09-09T04:50:41;4.78;;;1.83;;
69985;SDS011;57328;52.054;5.294;2022-09-09T04:53:08;4.55;;;2.47;;
69985;SDS011;57328;52.054;5.294;2022-09-09T04:55:35;3.40;;;1.42;;
69985;SDS011;57328;52.054;5.294;2022-09-09T04:58:03;6.82;;;2.58;;
69985;SDS011;57328;52.054;5.294;2022-09-09T05:02:58;10.65;;;3.40;;
69985;SDS011;57328;52.054;5.294;2022-09-09T05:05:29;6.13;;;2.53;;
69985;SDS011;57328;52.054;5.294;2022-09-09T05:08:00;6.25;;;2.15;;
69985;SDS011;57328;52.054;5.294;2022-09-09T05:10:28;4.47;;;1.85;;
69985;SDS011;57328;52.054;5.294;2022-09-09T05:12:55;6.25;;;2.33;;
69985;SDS011;57328;52.054;5.294;2022-09-09T05:15:22;8.30;;;2.17;;
69985;SDS011;57328;52.054;5.294;2022-09-09T05:17:50;5.10;;;1.92;;
69985;SDS011;57328;52.054;5.294;2022-09-09T05:20:19;9.32;;;3.08;;
69985;SDS011;57328;52.054;5.294;2022-09-09T05:22:53;6.90;;;2.65;;
69985;SDS011;57328;52.054;5.294;2022-09-09T05:25:20;6.78;;;2.72;;
69985;SDS011;57328;52.054;5.294;2022-09-09T05:27:48;6.32;;;2.15;;
69985;SDS011;57328;52.054;5.294;2022-09-09T05:30:15;6.30;;;2.70;;
69985;SDS011;57328;52.054;5.294;2022-09-09T05:32:44;9.60;;;2.55;;
69985;SDS011;57328;52.054;5.294;2022-09-09T05:35:14;10.07;;;2.53;;
69985;SDS011;57328;52.054;5.294;2022-09-09T05:37:42;6.47;;;2.70;;
69985;SDS011;57328;52.054;5.294;2022-09-09T05:40:12;8.43;;;2.38;;
69985;SDS011;57328;52.054;5.294;2022-09-09T05:42:40;7.63;;;2.55;;
69985;SDS011;57328;52.054;5.294;2022-09-09T05:45:07;10.52;;;2.90;;
69985;SDS011;57328;52.054;5.294;2022-09-09T05:47:35;17.75;;;3.60;;
69985;SDS011;57328;52.054;5.294;2022-09-09T05:50:03;8.90;;;2.67;;
69985;SDS011;57328;52.054;5.294;2022-09-09T05:52:30;7.22;;;2.10;;
69985;SDS011;57328;52.054;5.294;2022-09-09T05:54:58;6.95;;;2.50;;
69985;SDS011;57328;52.054;5.294;2022-09-09T05:57:25;8.25;;;2.60;;
69985;SDS011;57328;52.054;5.294;2022-09-09T05:59:53;7.60;;;2.20;;
69985;SDS011;57328;52.054;5.294;2022-09-09T06:02:20;7.10;;;2.90;;
69985;SDS011;57328;52.054;5.294;2022-09-09T06:04:47;6.93;;;2.28;;
69985;SDS011;57328;52.054;5.294;2022-09-09T06:07:14;7.60;;;2.45;;
69985;SDS011;57328;52.054;5.294;2022-09-09T06:09:41;7.38;;;2.17;;
69985;SDS011;57328;52.054;5.294;2022-09-09T06:12:08;5.93;;;2.35;;
69985;SDS011;57328;52.054;5.294;2022-09-09T06:14:35;6.18;;;2.55;;
69985;SDS011;57328;52.054;5.294;2022-09-09T06:17:03;6.53;;;2.03;;
69985;SDS011;57328;52.054;5.294;2022-09-09T06:21:58;8.50;;;2.20;;
69985;SDS011;57328;52.054;5.294;2022-09-09T06:24:25;9.57;;;2.85;;
69985;SDS011;57328;52.054;5.294;2022-09-09T06:26:52;6.18;;;2.05;;
69985;SDS011;57328;52.054;5.294;2022-09-09T06:29:20;5.60;;;2.00;;
69985;SDS011;57328;52.054;5.294;2022-09-09T06:31:47;7.72;;;2.00;;
69985;SDS011;57328;52.054;5.294;2022-09-09T06:34:14;6.03;;;2.10;;
69985;SDS011;57328;52.054;5.294;2022-09-09T06:36:41;7.18;;;2.00;;
69985;SDS011;57328;52.054;5.294;2022-09-09T06:39:08;5.80;;;2.17;;
69985;SDS011;57328;52.054;5.294;2022-09-09T06:41:40;7.50;;;1.95;;
69985;SDS011;57328;52.054;5.294;2022-09-09T06:44:08;11.13;;;2.20;;
69985;SDS011;57328;52.054;5.294;2022-09-09T07:20:14;13.05;;;2.20;;
69985;SDS011;57328;52.054;5.294;2022-09-09T07:22:44;10.07;;;1.80;;
69985;SDS011;57328;52.054;5.294;2022-09-09T07:25:11;9.10;;;2.03;;
69985;SDS011;57328;52.054;5.294;2022-09-09T07:27:38;8.32;;;1.90;;
69985;SDS011;57328;52.054;5.294;2022-09-09T07:30:07;8.00;;;1.95;;
69985;SDS011;57328;52.054;5.294;2022-09-09T07:32:34;9.48;;;2.05;;
69985;SDS011;57328;52.054;5.294;2022-09-09T07:35:01;7.93;;;2.10;;
69985;SDS011;57328;52.054;5.294;2022-09-09T07:37:28;8.20;;;1.83;;
69985;SDS011;57328;52.054;5.294;2022-09-09T07:39:55;7.18;;;1.75;;
69985;SDS011;57328;52.054;5.294;2022-09-09T07:42:23;8.40;;;2.42;;
69985;SDS011;57328;52.054;5.294;2022-09-09T07:44:50;6.82;;;2.40;;
69985;SDS011;57328;52.054;5.294;2022-09-09T07:47:20;9.93;;;1.83;;
69985;SDS011;57328;52.054;5.294;2022-09-09T07:49:48;9.77;;;1.98;;
69985;SDS011;57328;52.054;5.294;2022-09-09T07:52:16;9.07;;;2.00;;
69985;SDS011;57328;52.054;5.294;2022-09-09T07:54:48;9.27;;;1.95;;
69985;SDS011;57328;52.054;5.294;2022-09-09T07:57:15;9.98;;;2.17;;
69985;SDS011;57328;52.054;5.294;2022-09-09T07:59:50;8.65;;;1.90;;
69985;SDS011;57328;52.054;5.294;2022-09-09T08:02:18;7.35;;;1.98;;
69985;SDS011;57328;52.054;5.294;2022-09-09T08:04:45;11.38;;;2.30;;
69985;SDS011;57328;52.054;5.294;2022-09-09T08:07:12;9.88;;;2.00;;
69985;SDS011;57328;52.054;5.294;2022-09-09T08:09:39;6.35;;;1.70;;
69985;SDS011;57328;52.054;5.294;2022-09-09T08:12:11;8.68;;;1.60;;
69985;SDS011;57328;52.054;5.294;2022-09-09T08:14:39;8.40;;;1.83;;
69985;SDS011;57328;52.054;5.294;2022-09-09T08:17:06;9.52;;;1.77;;
69985;SDS011;57328;52.054;5.294;2022-09-09T08:19:33;10.02;;;2.00;;
69985;SDS011;57328;52.054;5.294;2022-09-09T08:22:02;7.20;;;1.85;;
69985;SDS011;57328;52.054;5.294;2022-09-09T08:24:29;7.47;;;1.70;;
69985;SDS011;57328;52.054;5.294;2022-09-09T08:26:56;8.65;;;1.90;;
69985;SDS011;57328;52.054;5.294;2022-09-09T08:29:24;11.95;;;1.70;;
69985;SDS011;57328;52.054;5.294;2022-09-09T08:31:53;10.77;;;2.10;;
69985;SDS011;57328;52.054;5.294;2022-09-09T08:34:21;4.55;;;1.60;;
69985;SDS011;57328;52.054;5.294;2022-09-09T08:36:48;8.70;;;1.58;;
69985;SDS011;57328;52.054;5.294;2022-09-09T08:39:16;10.35;;;1.90;;
69985;SDS011;57328;52.054;5.294;2022-09-09T08:44:19;9.27;;;1.80;;
69985;SDS011;57328;52.054;5.294;2022-09-09T09:10:35;8.60;;;2.17;;
69985;SDS011;57328;52.054;5.294;2022-09-09T09:13:11;7.20;;;2.30;;
69985;SDS011;57328;52.054;5.294;2022-09-09T09:28:02;7.38;;;2.05;;
69985;SDS011;57328;52.054;5.294;2022-09-09T09:30:42;12.55;;;1.95;;
69985;SDS011;57328;52.054;5.294;2022-09-09T09:35:39;6.80;;;1.60;;
69985;SDS011;57328;52.054;5.294;2022-09-09T09:41:03;7.05;;;2.00;;
69985;SDS011;57328;52.054;5.294;2022-09-09T09:43:31;7.90;;;2.15;;
69985;SDS011;57328;52.054;5.294;2022-09-09T09:46:05;7.97;;;1.92;;
69985;SDS011;57328;52.054;5.294;2022-09-09T09:48:44;8.77;;;1.90;;
69985;SDS011;57328;52.054;5.294;2022-09-09T09:51:13;8.15;;;2.22;;
69985;SDS011;57328;52.054;5.294;2022-09-09T09:53:42;8.23;;;2.00;;
69985;SDS011;57328;52.054;5.294;2022-09-09T09:56:10;10.18;;;2.22;;
69985;SDS011;57328;52.054;5.294;2022-09-09T10:01:05;9.50;;;2.17;;
69985;SDS011;57328;52.054;5.294;2022-09-09T10:03:33;10.32;;;2.38;;
69985;SDS011;57328;52.054;5.294;2022-09-09T10:06:07;7.03;;;2.00;;
69985;SDS011;57328;52.054;5.294;2022-09-09T10:08:43;9.77;;;2.03;;
69985;SDS011;57328;52.054;5.294;2022-09-09T10:13:53;7.65;;;1.63;;
69985;SDS011;57328;52.054;5.294;2022-09-09T10:18:58;7.28;;;2.00;;
69985;SDS011;57328;52.054;5.294;2022-09-09T10:34:56;7.72;;;1.90;;
69985;SDS011;57328;52.054;5.294;2022-09-09T10:37:29;8.38;;;2.00;;
69985;SDS011;57328;52.054;5.294;2022-09-09T10:40:02;4.90;;;1.90;;
69985;SDS011;57328;52.054;5.294;2022-09-09T10:42:38;8.15;;;2.00;;
69985;SDS011;57328;52.054;5.294;2022-09-09T10:45:09;7.82;;;1.75;;
69985;SDS011;57328;52.054;5.294;2022-09-09T10:47:46;6.55;;;1.90;;
69985;SDS011;57328;52.054;5.294;2022-09-09T10:50:25;6.43;;;1.92;;
69985;SDS011;57328;52.054;5.294;2022-09-09T10:55:43;8.20;;;2.20;;
69985;SDS011;57328;52.054;5.294;2022-09-09T10:58:16;12.65;;;2.38;;
69985;SDS011;57328;52.054;5.294;2022-09-09T11:00:49;7.43;;;2.03;;
69985;SDS011;57328;52.054;5.294;2022-09-09T11:03:26;6.03;;;2.10;;
69985;SDS011;57328;52.054;5.294;2022-09-09T11:06:09;10.02;;;2.15;;
69985;SDS011;57328;52.054;5.294;2022-09-09T11:08:39;7.20;;;2.10;;
69985;SDS011;57328;52.054;5.294;2022-09-09T11:14:20;10.80;;;2.40;;
69985;SDS011;57328;52.054;5.294;2022-09-09T11:19:26;5.68;;;1.73;;
69985;SDS011;57328;52.054;5.294;2022-09-09T11:21:55;7.22;;;1.75;;
69985;SDS011;57328;52.054;5.294;2022-09-09T11:24:54;6.85;;;1.73;;
69985;SDS011;57328;52.054;5.294;2022-09-09T11:27:25;8.60;;;1.95;;
69985;SDS011;57328;52.054;5.294;2022-09-09T11:30:02;5.97;;;1.63;;
69985;SDS011;57328;52.054;5.294;2022-09-09T11:32:39;6.55;;;1.60;;
69985;SDS011;57328;52.054;5.294;2022-09-09T11:35:20;7.70;;;1.70;;
69985;SDS011;57328;52.054;5.294;2022-09-09T11:37:59;8.25;;;1.90;;
69985;SDS011;57328;52.054;5.294;2022-09-09T11:40:31;7.32;;;1.67;;
69985;SDS011;57328;52.054;5.294;2022-09-09T11:43:09;5.95;;;2.00;;
69985;SDS011;57328;52.054;5.294;2022-09-09T11:45:39;6.68;;;1.90;;
69985;SDS011;57328;52.054;5.294;2022-09-09T11:48:23;6.60;;;2.05;;
69985;SDS011;57328;52.054;5.294;2022-09-09T11:53:56;9.20;;;2.15;;
69985;SDS011;57328;52.054;5.294;2022-09-09T11:56:31;9.15;;;1.80;;
69985;SDS011;57328;52.054;5.294;2022-09-09T11:59:06;6.38;;;2.03;;
69985;SDS011;57328;52.054;5.294;2022-09-09T12:06:46;6.13;;;1.80;;
69985;SDS011;57328;52.054;5.294;2022-09-09T12:09:22;5.55;;;1.90;;
69985;SDS011;57328;52.054;5.294;2022-09-09T12:11:50;5.53;;;2.05;;
69985;SDS011;57328;52.054;5.294;2022-09-09T12:14:37;7.05;;;1.90;;
69985;SDS011;57328;52.054;5.294;2022-09-09T12:19:47;7.57;;;2.13;;
69985;SDS011;57328;52.054;5.294;2022-09-09T12:22:20;8.90;;;2.40;;
69985;SDS011;57328;52.054;5.294;2022-09-09T12:27:24;4.45;;;1.63;;
69985;SDS011;57328;52.054;5.294;2022-09-09T12:30:03;7.70;;;2.00;;
69985;SDS011;57328;52.054;5.294;2022-09-09T12:32:34;6.43;;;2.20;;
69985;SDS011;57328;52.054;5.294;2022-09-09T12:42:45;4.88;;;2.00;;
69985;SDS011;57328;52.054;5.294;2022-09-09T12:45:22;5.53;;;2.05;;
69985;SDS011;57328;52.054;5.294;2022-09-09T12:50:24;7.93;;;2.20;;
69985;SDS011;57328;52.054;5.294;2022-09-09T12:52:56;5.72;;;2.00;;
69985;SDS011;57328;52.054;5.294;2022-09-09T12:55:28;7.40;;;1.75;;
69985;SDS011;57328;52.054;5.294;2022-09-09T12:57:56;9.15;;;2.30;;
69985;SDS011;57328;52.054;5.294;2022-09-09T13:00:25;9.57;;;2.55;;
69985;SDS011;57328;52.054;5.294;2022-09-09T13:02:56;10.10;;;2.65;;
69985;SDS011;57328;52.054;5.294;2022-09-09T13:05:26;6.03;;;1.95;;
69985;SDS011;57328;52.054;5.294;2022-09-09T13:08:00;7.30;;;1.83;;
69985;SDS011;57328;52.054;5.294;2022-09-09T13:10:33;5.38;;;1.80;;
69985;SDS011;57328;52.054;5.294;2022-09-09T13:13:29;5.63;;;2.03;;
69985;SDS011;57328;52.054;5.294;2022-09-09T13:15:57;4.60;;;2.00;;
69985;SDS011;57328;52.054;5.294;2022-09-09T13:18:29;10.60;;;3.00;;
69985;SDS011;57328;52.054;5.294;2022-09-09T13:20:57;8.23;;;2.33;;
69985;SDS011;57328;52.054;5.294;2022-09-09T13:23:29;9.10;;;2.42;;
69985;SDS011;57328;52.054;5.294;2022-09-09T13:28:54;7.78;;;2.40;;
69985;SDS011;57328;52.054;5.294;2022-09-09T13:33:49;7.82;;;2.17;;
69985;SDS011;57328;52.054;5.294;2022-09-09T13:36:16;11.50;;;2.78;;
69985;SDS011;57328;52.054;5.294;2022-09-09T13:38:56;5.40;;;2.10;;
69985;SDS011;57328;52.054;5.294;2022-09-09T13:41:28;8.02;;;2.15;;
69985;SDS011;57328;52.054;5.294;2022-09-09T13:43:56;6.88;;;2.28;;
69985;SDS011;57328;52.054;5.294;2022-09-09T13:46:33;5.03;;;2.20;;
69985;SDS011;57328;52.054;5.294;2022-09-09T13:49:22;7.10;;;2.10;;
69985;SDS011;57328;52.054;5.294;2022-09-09T13:52:02;9.18;;;2.40;;
69985;SDS011;57328;52.054;5.294;2022-09-09T13:54:29;7.82;;;2.10;;
69985;SDS011;57328;52.054;5.294;2022-09-09T13:56:58;12.10;;;2.53;;
69985;SDS011;57328;52.054;5.294;2022-09-09T13:59:28;11.60;;;2.42;;
69985;SDS011;57328;52.054;5.294;2022-09-09T14:02:15;5.55;;;2.42;;
69985;SDS011;57328;52.054;5.294;2022-09-09T14:04:43;8.70;;;1.90;;
69985;SDS011;57328;52.054;5.294;2022-09-09T14:07:14;6.85;;;2.13;;
69985;SDS011;57328;52.054;5.294;2022-09-09T14:09:42;7.18;;;2.10;;
69985;SDS011;57328;52.054;5.294;2022-09-09T14:12:12;7.63;;;2.22;;
69985;SDS011;57328;52.054;5.294;2022-09-09T14:14:41;9.05;;;2.33;;
69985;SDS011;57328;52.054;5.294;2022-09-09T14:17:08;9.77;;;2.58;;
69985;SDS011;57328;52.054;5.294;2022-09-09T14:22:06;9.88;;;2.35;;
69985;SDS011;57328;52.054;5.294;2022-09-09T14:24:33;6.68;;;2.35;;
69985;SDS011;57328;52.054;5.294;2022-09-09T14:27:00;5.65;;;2.50;;
69985;SDS011;57328;52.054;5.294;2022-09-09T14:29:27;7.55;;;2.42;;
69985;SDS011;57328;52.054;5.294;2022-09-09T14:31:54;9.23;;;2.83;;
69985;SDS011;57328;52.054;5.294;2022-09-09T14:34:21;8.48;;;2.33;;
69985;SDS011;57328;52.054;5.294;2022-09-09T14:36:48;5.78;;;2.30;;
69985;SDS011;57328;52.054;5.294;2022-09-09T14:39:16;7.15;;;2.20;;
69985;SDS011;57328;52.054;5.294;2022-09-09T14:41:43;6.47;;;2.60;;
69985;SDS011;57328;52.054;5.294;2022-09-09T14:44:11;7.70;;;2.90;;
69985;SDS011;57328;52.054;5.294;2022-09-09T14:46:38;7.75;;;2.30;;
69985;SDS011;57328;52.054;5.294;2022-09-09T14:49:08;6.03;;;2.30;;
69985;SDS011;57328;52.054;5.294;2022-09-09T14:51:39;4.63;;;2.15;;
69985;SDS011;57328;52.054;5.294;2022-09-09T14:54:06;4.38;;;1.63;;
69985;SDS011;57328;52.054;5.294;2022-09-09T14:56:33;4.75;;;1.90;;
69985;SDS011;57328;52.054;5.294;2022-09-09T14:59:01;2.53;;;1.30;;
69985;SDS011;57328;52.054;5.294;2022-09-09T15:01:30;3.83;;;1.23;;
69985;SDS011;57328;52.054;5.294;2022-09-09T15:04:02;2.95;;;0.95;;
69985;SDS011;57328;52.054;5.294;2022-09-09T15:06:31;5.10;;;1.27;;
69985;SDS011;57328;52.054;5.294;2022-09-09T15:08:59;3.22;;;1.30;;
69985;SDS011;57328;52.054;5.294;2022-09-09T15:11:27;4.05;;;1.27;;
69985;SDS011;57328;52.054;5.294;2022-09-09T15:13:56;4.32;;;1.42;;
69985;SDS011;57328;52.054;5.294;2022-09-09T15:16:25;2.65;;;1.23;;
69985;SDS011;57328;52.054;5.294;2022-09-09T15:18:54;6.40;;;1.52;;
69985;SDS011;57328;52.054;5.294;2022-09-09T15:21:24;3.83;;;1.50;;
69985;SDS011;57328;52.054;5.294;2022-09-09T15:23:51;6.68;;;1.40;;
69985;SDS011;57328;52.054;5.294;2022-09-09T15:26:20;3.80;;;1.35;;
69985;SDS011;57328;52.054;5.294;2022-09-09T15:28:48;3.67;;;1.42;;
69985;SDS011;57328;52.054;5.294;2022-09-09T15:31:17;4.95;;;1.38;;
69985;SDS011;57328;52.054;5.294;2022-09-09T15:33:49;4.00;;;1.40;;
69985;SDS011;57328;52.054;5.294;2022-09-09T15:38:43;6.13;;;1.75;;
69985;SDS011;57328;52.054;5.294;2022-09-09T15:41:10;6.72;;;1.67;;
69985;SDS011;57328;52.054;5.294;2022-09-09T15:43:38;3.33;;;1.50;;
69985;SDS011;57328;52.054;5.294;2022-09-09T15:48:44;2.47;;;1.40;;
69985;SDS011;57328;52.054;5.294;2022-09-09T15:51:19;4.28;;;1.63;;
69985;SDS011;57328;52.054;5.294;2022-09-09T15:54:06;3.38;;;1.58;;
69985;SDS011;57328;52.054;5.294;2022-09-09T15:56:35;4.85;;;1.70;;
69985;SDS011;57328;52.054;5.294;2022-09-09T15:59:02;3.75;;;1.20;;
69985;SDS011;57328;52.054;5.294;2022-09-09T16:01:30;5.25;;;1.63;;
69985;SDS011;57328;52.054;5.294;2022-09-09T16:03:57;2.65;;;1.50;;
69985;SDS011;57328;52.054;5.294;2022-09-09T16:06:26;5.28;;;1.58;;
69985;SDS011;57328;52.054;5.294;2022-09-09T16:08:55;5.65;;;1.40;;
69985;SDS011;57328;52.054;5.294;2022-09-09T16:11:23;5.22;;;1.77;;
69985;SDS011;57328;52.054;5.294;2022-09-09T16:13:51;5.82;;;1.63;;
69985;SDS011;57328;52.054;5.294;2022-09-09T16:16:20;4.57;;;1.70;;
69985;SDS011;57328;52.054;5.294;2022-09-09T16:18:49;7.78;;;2.08;;
69985;SDS011;57328;52.054;5.294;2022-09-09T16:21:20;7.15;;;1.75;;
69985;SDS011;57328;52.054;5.294;2022-09-09T16:23:48;6.45;;;1.73;;
69985;SDS011;57328;52.054;5.294;2022-09-09T16:26:16;5.78;;;1.65;;
69985;SDS011;57328;52.054;5.294;2022-09-09T16:28:44;7.38;;;1.80;;
69985;SDS011;57328;52.054;5.294;2022-09-09T16:31:16;5.47;;;1.70;;
69985;SDS011;57328;52.054;5.294;2022-09-09T16:33:44;6.68;;;1.50;;
69985;SDS011;57328;52.054;5.294;2022-09-09T16:36:13;4.57;;;1.65;;
69985;SDS011;57328;52.054;5.294;2022-09-09T16:41:08;4.28;;;1.70;;
69985;SDS011;57328;52.054;5.294;2022-09-09T16:43:35;4.88;;;1.98;;
69985;SDS011;57328;52.054;5.294;2022-09-09T16:46:09;4.93;;;1.77;;
69985;SDS011;57328;52.054;5.294;2022-09-09T16:48:38;7.93;;;1.67;;
69985;SDS011;57328;52.054;5.294;2022-09-09T16:51:06;6.45;;;2.33;;
69985;SDS011;57328;52.054;5.294;2022-09-09T16:53:33;6.45;;;2.17;;
69985;SDS011;57328;52.054;5.294;2022-09-09T16:56:07;4.93;;;2.10;;
69985;SDS011;57328;52.054;5.294;2022-09-09T16:58:34;7.35;;;2.72;;
69985;SDS011;57328;52.054;5.294;2022-09-09T17:01:03;5.70;;;2.65;;
69985;SDS011;57328;52.054;5.294;2022-09-09T17:03:31;7.68;;;2.58;;
69985;SDS011;57328;52.054;5.294;2022-09-09T17:05:58;6.07;;;1.95;;
69985;SDS011;57328;52.054;5.294;2022-09-09T17:08:29;7.00;;;2.78;;
69985;SDS011;57328;52.054;5.294;2022-09-09T17:10:57;5.85;;;2.70;;
69985;SDS011;57328;52.054;5.294;2022-09-09T17:13:25;7.47;;;2.50;;
69985;SDS011;57328;52.054;5.294;2022-09-09T17:15:52;9.30;;;3.25;;
69985;SDS011;57328;52.054;5.294;2022-09-09T17:18:22;5.90;;;2.22;;
69985;SDS011;57328;52.054;5.294;2022-09-09T17:20:51;6.13;;;2.40;;
69985;SDS011;57328;52.054;5.294;2022-09-09T17:23:18;5.45;;;2.25;;
69985;SDS011;57328;52.054;5.294;2022-09-09T17:25:55;8.02;;;2.45;;
69985;SDS011;57328;52.054;5.294;2022-09-09T17:28:22;8.07;;;2.40;;
69985;SDS011;57328;52.054;5.294;2022-09-09T17:30:53;5.45;;;2.20;;
69985;SDS011;57328;52.054;5.294;2022-09-09T17:33:20;4.95;;;2.10;;
69985;SDS011;57328;52.054;5.294;2022-09-09T17:35:49;4.45;;;1.90;;
69985;SDS011;57328;52.054;5.294;2022-09-09T17:38:16;6.18;;;2.00;;
69985;SDS011;57328;52.054;5.294;2022-09-09T17:40:43;7.00;;;2.28;;
69985;SDS011;57328;52.054;5.294;2022-09-09T17:43:12;5.82;;;2.50;;
69985;SDS011;57328;52.054;5.294;2022-09-09T17:45:42;5.80;;;1.98;;
69985;SDS011;57328;52.054;5.294;2022-09-09T17:48:09;5.90;;;2.33;;
69985;SDS011;57328;52.054;5.294;2022-09-09T17:50:36;6.38;;;1.90;;
69985;SDS011;57328;52.054;5.294;2022-09-09T17:53:03;5.97;;;2.10;;
69985;SDS011;57328;52.054;5.294;2022-09-09T17:55:32;5.97;;;2.22;;
69985;SDS011;57328;52.054;5.294;2022-09-09T17:57:59;6.13;;;2.22;;
69985;SDS011;57328;52.054;5.294;2022-09-09T18:00:26;6.38;;;2.10;;
69985;SDS011;57328;52.054;5.294;2022-09-09T18:02:56;5.75;;;1.92;;
69985;SDS011;57328;52.054;5.294;2022-09-09T18:05:25;4.72;;;1.80;;
69985;SDS011;57328;52.054;5.294;2022-09-09T18:07:52;5.07;;;1.90;;
69985;SDS011;57328;52.054;5.294;2022-09-09T18:10:19;7.32;;;2.03;;
69985;SDS011;57328;52.054;5.294;2022-09-09T18:12:46;7.18;;;1.98;;
69985;SDS011;57328;52.054;5.294;2022-09-09T18:15:13;6.72;;;2.15;;
69985;SDS011;57328;52.054;5.294;2022-09-09T18:17:53;6.65;;;2.90;;
69985;SDS011;57328;52.054;5.294;2022-09-09T18:20:20;6.57;;;2.35;;
69985;SDS011;57328;52.054;5.294;2022-09-09T18:22:48;9.80;;;2.90;;
69985;SDS011;57328;52.054;5.294;2022-09-09T18:25:15;9.98;;;2.90;;
69985;SDS011;57328;52.054;5.294;2022-09-09T18:27:43;7.95;;;3.25;;
69985;SDS011;57328;52.054;5.294;2022-09-09T18:30:10;6.13;;;3.05;;
69985;SDS011;57328;52.054;5.294;2022-09-09T18:32:37;5.00;;;2.92;;
69985;SDS011;57328;52.054;5.294;2022-09-09T18:35:06;6.03;;;2.97;;
69985;SDS011;57328;52.054;5.294;2022-09-09T18:37:33;7.18;;;3.30;;
69985;SDS011;57328;52.054;5.294;2022-09-09T18:40:02;9.25;;;3.10;;